Time;durP1;ratioP1;P1;durP2;ratioP2;P2;SDS_P1;SDS_P2;PMS_P1;PMS_P2;Temp;Humidity;BMP_temperature;BMP_pressure;BME280_temperature;BME280_humidity;BME280_pressure;Samples;Min_cycle;Max_cycle;Signal;HPM_P1;HPM_P2
2022/03/08 00:04:46;;;;;;;50.10;25.50;;;23.30;54.80;;;;;;220072;1268;24312;-55
2022/03/08 00:09:50;;;;;;;44.10;22.70;;;23.30;54.80;;;;;;219832;1267;25512;-55
2022/03/08 00:14:56;;;;;;;49.80;24.80;;;23.20;54.70;;;;;;220108;1267;25328;-52
2022/03/08 00:20:06;;;;;;;45.70;24.10;;;23.10;54.80;;;;;;219895;1267;22806;-56
2022/03/08 00:25:13;;;;;;;47.40;23.90;;;23.00;54.80;;;;;;219966;1271;22574;-55
2022/03/08 00:30:20;;;;;;;42.80;23.00;;;22.90;54.70;;;;;;219993;1268;24380;-52
2022/03/08 00:35:25;;;;;;;41.70;21.90;;;22.80;54.70;;;;;;219811;1268;24316;-54
2022/03/08 00:40:30;;;;;;;40.50;22.10;;;22.80;54.70;;;;;;219413;1271;26274;-55
2022/03/08 00:45:36;;;;;;;45.60;23.10;;;22.80;54.80;;;;;;220033;1268;22607;-54
2022/03/08 00:50:40;;;;;;;40.40;22.30;;;22.70;54.80;;;;;;219866;1271;25245;-55
2022/03/08 00:55:44;;;;;;;42.80;21.50;;;22.60;55.10;;;;;;219995;1268;25213;-56
2022/03/08 01:00:47;;;;;;;42.30;21.70;;;22.50;55.70;;;;;;219760;1268;22592;-55
2022/03/08 01:05:51;;;;;;;36.90;20.10;;;22.50;55.40;;;;;;219709;1268;22586;-55
2022/03/08 01:10:55;;;;;;;36.40;18.50;;;22.50;55.30;;;;;;219849;1267;22544;-55
2022/03/08 01:15:59;;;;;;;34.40;18.50;;;22.70;55.20;;;;;;220023;1268;22589;-52
2022/03/08 01:21:04;;;;;;;36.80;18.80;;;23.20;54.10;;;;;;219827;1268;24431;-56
2022/03/08 01:26:07;;;;;;;32.50;18.20;;;23.50;53.00;;;;;;220023;1267;25343;-55
2022/03/08 01:31:11;;;;;;;32.40;16.80;;;23.70;52.90;;;;;;219893;1268;24155;-52
2022/03/08 01:36:14;;;;;;;29.80;16.60;;;23.80;52.60;;;;;;219809;1268;25342;-56
2022/03/08 01:41:18;;;;;;;37.20;18.10;;;23.90;52.50;;;;;;219872;1269;22575;-56
2022/03/08 01:46:22;;;;;;;31.50;17.40;;;23.90;51.90;;;;;;220218;1268;25483;-54
2022/03/08 01:51:26;;;;;;;29.30;17.00;;;24.10;51.80;;;;;;219845;1268;22784;-54
2022/03/08 01:56:30;;;;;;;27.20;15.70;;;24.20;51.80;;;;;;219985;1267;24305;-54
2022/03/08 02:01:34;;;;;;;27.70;16.80;;;24.30;51.10;;;;;;219776;1273;22533;-51
2022/03/08 02:06:38;;;;;;;27.70;15.70;;;24.40;51.10;;;;;;219853;1271;25465;-54
2022/03/08 02:11:43;;;;;;;25.20;15.00;;;24.40;51.70;;;;;;219905;1268;24262;-54
2022/03/08 02:16:46;;;;;;;26.60;15.60;;;24.50;50.90;;;;;;219699;1268;25005;-54
2022/03/08 02:21:51;;;;;;;26.40;15.90;;;24.50;50.90;;;;;;219973;1269;22564;-56
2022/03/08 02:26:54;;;;;;;24.60;14.10;;;24.50;50.50;;;;;;219830;1268;23128;-53
2022/03/08 02:31:58;;;;;;;22.90;13.80;;;24.50;50.60;;;;;;219701;1268;22545;-57
2022/03/08 02:37:06;;;;;;;25.40;14.80;;;24.60;50.30;;;;;;219942;1268;22689;-57
2022/03/08 02:42:09;;;;;;;24.60;14.90;;;24.70;50.30;;;;;;219802;1268;24312;-55
2022/03/08 02:47:13;;;;;;;26.00;14.10;;;24.70;50.00;;;;;;219953;1268;24404;-55
2022/03/08 02:52:17;;;;;;;22.30;13.60;;;24.70;50.20;;;;;;219730;1269;22751;-53
2022/03/08 02:57:21;;;;;;;21.20;13.70;;;24.60;50.10;;;;;;219821;1268;23034;-54
2022/03/08 03:02:24;;;;;;;22.90;14.20;;;24.40;50.20;;;;;;219734;1268;24304;-54
2022/03/08 03:07:28;;;;;;;24.10;13.00;;;24.30;50.40;;;;;;220178;1273;22552;-55
2022/03/08 03:12:33;;;;;;;21.60;13.90;;;24.10;50.70;;;;;;219931;1268;22593;-55
2022/03/08 03:17:37;;;;;;;23.70;13.50;;;23.90;51.10;;;;;;220234;1268;26712;-55
2022/03/08 03:22:41;;;;;;;18.90;12.30;;;23.80;51.90;;;;;;219948;1268;22546;-52
2022/03/08 03:27:45;;;;;;;22.30;12.80;;;23.60;51.80;;;;;;219796;1268;24119;-55
2022/03/08 03:32:50;;;;;;;20.30;12.50;;;23.50;52.30;;;;;;220483;1268;25423;-56
2022/03/08 03:37:59;;;;;;;20.80;12.20;;;23.40;52.20;;;;;;219799;1268;23493;-54
2022/03/08 03:43:03;;;;;;;19.50;12.50;;;23.30;52.50;;;;;;219962;1268;25563;-54
2022/03/08 03:48:07;;;;;;;19.80;12.30;;;23.20;52.50;;;;;;219823;1268;25257;-51
2022/03/08 03:53:10;;;;;;;18.20;12.60;;;23.10;52.70;;;;;;219757;1268;22598;-54
2022/03/08 03:58:14;;;;;;;20.00;12.00;;;23.00;52.80;;;;;;219875;1268;25481;-55
2022/03/08 04:03:19;;;;;;;18.50;11.90;;;22.90;53.00;;;;;;219723;1268;25326;-54
2022/03/08 04:08:22;;;;;;;19.10;11.60;;;22.90;53.30;;;;;;220297;1268;25356;-54
2022/03/08 04:13:26;;;;;;;18.30;11.80;;;22.80;53.20;;;;;;219924;1269;24381;-56
2022/03/08 04:18:30;;;;;;;18.80;11.30;;;22.70;53.40;;;;;;219668;1268;22578;-55
2022/03/08 04:23:33;;;;;;;20.70;12.00;;;22.60;53.30;;;;;;219819;1268;22560;-57
2022/03/08 04:28:41;;;;;;;16.90;11.00;;;22.60;53.30;;;;;;219812;1268;22582;-53
2022/03/08 04:33:49;;;;;;;18.10;11.00;;;22.80;53.90;;;;;;220067;1268;24341;-55
2022/03/08 04:38:53;;;;;;;16.60;10.80;;;23.30;52.00;;;;;;219902;1268;25326;-56
2022/03/08 04:43:57;;;;;;;17.90;11.00;;;23.60;51.40;;;;;;219896;1268;25547;-51
2022/03/08 04:49:01;;;;;;;15.30;9.80;;;23.90;50.40;;;;;;220090;1268;179892;-53
2022/03/08 04:54:05;;;;;;;15.90;10.40;;;24.00;50.00;;;;;;220003;1268;22856;-56
2022/03/08 04:59:09;;;;;;;15.60;10.20;;;24.20;49.60;;;;;;219774;1268;22547;-54
2022/03/08 05:04:13;;;;;;;16.80;10.60;;;24.30;49.50;;;;;;220078;1268;22542;-53
2022/03/08 05:09:17;;;;;;;14.10;9.20;;;24.40;49.20;;;;;;219964;1268;24308;-54
2022/03/08 05:14:20;;;;;;;16.60;10.20;;;24.40;48.80;;;;;;219927;1268;22560;-54
2022/03/08 05:19:24;;;;;;;13.80;9.50;;;24.50;48.90;;;;;;219888;1266;22607;-54
2022/03/08 05:24:38;;;;;;;13.90;10.00;;;24.50;49.00;;;;;;219839;1267;22542;-55
2022/03/08 05:29:42;;;;;;;15.10;10.40;;;24.50;48.50;;;;;;220159;1268;25621;-54
2022/03/08 05:34:45;;;;;;;14.00;9.40;;;24.60;48.30;;;;;;219978;1268;24319;-55
2022/03/08 05:39:49;;;;;;;14.80;9.50;;;24.60;48.30;;;;;;220187;1268;25388;-54
2022/03/08 05:44:53;;;;;;;16.10;8.80;;;24.60;48.60;;;;;;220322;1267;22556;-55
2022/03/08 05:49:57;;;;;;;13.70;9.30;;;24.70;48.20;;;;;;219990;1267;24262;-54
2022/03/08 05:55:00;;;;;;;14.40;9.30;;;24.70;47.80;;;;;;219864;1267;29059;-55
2022/03/08 06:00:06;;;;;;;12.50;9.20;;;24.70;48.10;;;;;;220077;1267;22547;-56
2022/03/08 06:05:16;;;;;;;15.40;9.30;;;24.60;48.30;;;;;;220094;1267;25459;-52
2022/03/08 06:10:20;;;;;;;15.90;9.90;;;24.40;48.40;;;;;;220446;1267;25360;-56
2022/03/08 06:15:23;;;;;;;14.40;9.60;;;24.30;48.70;;;;;;219722;1267;25958;-55
2022/03/08 06:20:27;;;;;;;13.00;9.00;;;24.10;49.30;;;;;;219919;1267;25318;-58
2022/03/08 06:25:33;;;;;;;14.00;9.50;;;24.00;49.70;;;;;;220166;1267;22602;-55
2022/03/08 06:30:37;;;;;;;14.90;8.70;;;23.80;49.60;;;;;;220220;1267;24239;-55
2022/03/08 06:35:40;;;;;;;14.00;9.30;;;23.60;49.80;;;;;;220065;1267;22633;-56
2022/03/08 06:40:44;;;;;;;13.60;8.80;;;23.50;50.10;;;;;;219893;1267;23824;-55
2022/03/08 06:45:47;;;;;;;13.90;9.00;;;23.40;50.30;;;;;;219813;1267;22589;-55
2022/03/08 06:50:51;;;;;;;13.20;8.80;;;23.20;50.60;;;;;;220038;1267;22557;-55
2022/03/08 06:55:55;;;;;;;14.60;9.10;;;23.20;50.90;;;;;;219971;1267;23288;-56
2022/03/08 07:00:59;;;;;;;13.30;8.90;;;23.10;51.10;;;;;;220439;1267;24202;-55
2022/03/08 07:06:05;;;;;;;14.50;9.00;;;23.00;51.30;;;;;;219858;1267;22609;-57
2022/03/08 07:11:10;;;;;;;14.70;9.30;;;22.90;51.20;;;;;;220122;1267;22984;-55
2022/03/08 07:16:14;;;;;;;13.90;9.00;;;22.90;51.30;;;;;;219799;1267;23037;-55
2022/03/08 07:21:17;;;;;;;13.00;8.40;;;22.80;51.30;;;;;;219985;1267;24930;-52
2022/03/08 07:26:21;;;;;;;12.30;8.40;;;22.80;51.40;;;;;;220015;1267;25568;-55
2022/03/08 07:31:25;;;;;;;14.20;9.30;;;22.70;51.50;;;;;;219918;1269;22694;-55
2022/03/08 07:36:29;;;;;;;16.90;9.20;;;22.60;51.60;;;;;;219710;1268;24450;-56
2022/03/08 07:41:32;;;;;;;13.00;8.90;;;22.60;51.70;;;;;;220319;1267;23453;-54
2022/03/08 07:46:36;;;;;;;14.80;8.80;;;22.50;51.90;;;;;;220290;1267;22553;-53
2022/03/08 07:51:40;;;;;;;14.10;8.50;;;22.60;51.80;;;;;;219703;1267;22561;-55
2022/03/08 07:56:44;;;;;;;13.00;8.10;;;22.90;51.60;;;;;;219945;1268;25126;-56
2022/03/08 08:01:48;;;;;;;13.90;8.30;;;23.20;51.60;;;;;;219899;1267;22654;-57
2022/03/08 08:06:52;;;;;;;12.20;7.60;;;23.50;50.40;;;;;;219788;1267;22541;-56
2022/03/08 08:11:59;;;;;;;12.30;8.20;;;23.60;49.90;;;;;;219988;1267;25248;-57
2022/03/08 08:17:03;;;;;;;13.40;8.30;;;23.80;49.50;;;;;;220615;1267;22648;-55
2022/03/08 08:22:07;;;;;;;12.70;7.80;;;23.80;49.40;;;;;;220108;1267;22634;-55
2022/03/08 08:27:11;;;;;;;13.10;8.40;;;23.80;49.50;;;;;;219853;1267;23026;-54
2022/03/08 08:32:15;;;;;;;13.90;7.90;;;23.90;49.40;;;;;;219565;1270;24309;-56
2022/03/08 08:37:23;;;;;;;13.20;7.90;;;23.90;49.00;;;;;;222676;1268;22553;-57
2022/03/08 08:42:29;;;;;;;11.80;7.70;;;23.90;49.00;;;;;;219871;1267;22557;-57
2022/03/08 08:47:35;;;;;;;14.90;7.70;;;24.10;48.80;;;;;;220541;1267;25540;-55
2022/03/08 08:52:38;;;;;;;18.30;8.20;;;24.30;48.50;;;;;;220146;1267;22536;-54
2022/03/08 08:57:42;;;;;;;11.20;7.20;;;24.30;48.20;;;;;;220260;1267;25557;-57
2022/03/08 09:02:46;;;;;;;13.70;8.00;;;24.30;48.20;;;;;;220010;1267;22619;-58
2022/03/08 09:07:52;;;;;;;14.60;8.10;;;24.30;48.20;;;;;;220184;1267;25392;-53
2022/03/08 09:12:55;;;;;;;12.70;7.70;;;24.40;48.60;;;;;;219994;1267;24380;-54
2022/03/08 09:18:05;;;;;;;13.30;7.80;;;24.40;48.20;;;;;;219658;1268;24261;-58
2022/03/08 09:23:10;;;;;;;12.90;7.50;;;24.30;49.10;;;;;;220143;1267;24316;-54
2022/03/08 09:28:16;;;;;;;16.70;7.20;;;24.30;50.20;;;;;;220165;1267;22541;-55
2022/03/08 09:33:22;;;;;;;13.00;7.20;;;24.30;50.20;;;;;;219965;1267;22529;-54
2022/03/08 09:38:52;;;;;;;17.30;7.90;;;24.20;50.30;;;;;;219847;1268;27618;-56
2022/03/08 09:43:56;;;;;;;13.40;7.10;;;24.20;50.90;;;;;;219788;1267;24432;-54
2022/03/08 09:49:01;;;;;;;11.30;6.60;;;24.10;50.30;;;;;;220121;1267;24744;-54
2022/03/08 09:54:06;;;;;;;9.70;6.30;;;24.00;50.50;;;;;;219776;1268;23621;-56
2022/03/08 09:59:13;;;;;;;12.90;7.00;;;24.00;50.50;;;;;;219970;1267;25389;-54
2022/03/08 10:04:18;;;;;;;11.70;6.40;;;24.10;50.80;;;;;;220012;1267;24456;-56
2022/03/08 10:09:55;;;;;;;12.80;6.80;;;24.00;50.30;;;;;;219568;1267;22729;-55
2022/03/08 10:14:59;;;;;;;15.80;6.40;;;24.00;50.30;;;;;;220051;1267;25358;-57
2022/03/08 10:20:09;;;;;;;14.30;6.00;;;24.00;50.10;;;;;;219726;1267;22588;-53
2022/03/08 10:25:17;;;;;;;135.40;39.40;;;24.10;50.30;;;;;;219795;1267;25352;-57
2022/03/08 10:30:24;;;;;;;230.50;77.30;;;24.00;50.30;;;;;;219879;1268;25532;-57
2022/03/08 10:35:42;;;;;;;359.20;111.30;;;24.00;50.00;;;;;;220145;1267;23154;-55
2022/03/08 10:40:46;;;;;;;345.70;109.20;;;23.90;48.20;;;;;;220096;1267;22733;-55
2022/03/08 10:45:50;;;;;;;245.50;83.40;;;23.90;46.90;;;;;;219720;1267;25359;-53
2022/03/08 10:50:54;;;;;;;203.20;64.70;;;23.90;45.30;;;;;;220165;1267;22551;-53
2022/03/08 10:55:58;;;;;;;168.40;56.70;;;23.80;44.10;;;;;;219990;1267;22712;-52
2022/03/08 11:01:10;;;;;;;166.60;51.20;;;23.80;42.90;;;;;;219706;1267;22564;-50
2022/03/08 11:06:15;;;;;;;131.40;48.50;;;23.80;43.50;;;;;;219996;1267;22567;-52
2022/03/08 11:11:20;;;;;;;121.80;43.80;;;23.80;42.80;;;;;;219727;1267;22555;-52
2022/03/08 11:16:26;;;;;;;105.50;40.50;;;23.80;42.30;;;;;;219840;1267;25621;-55
2022/03/08 11:21:32;;;;;;;103.50;36.60;;;23.80;41.60;;;;;;219882;1267;22551;-55
2022/03/08 11:26:37;;;;;;;101.70;38.90;;;23.90;41.50;;;;;;219853;1267;25419;-54
2022/03/08 11:31:44;;;;;;;82.40;30.90;;;23.80;41.80;;;;;;219866;1267;23035;-56
2022/03/08 11:37:00;;;;;;;71.80;27.10;;;23.80;41.10;;;;;;227774;1268;22420;-62
2022/03/08 11:42:15;;;;;;;71.00;27.10;;;23.70;41.30;;;;;;227874;1267;22377;-61
2022/03/08 11:47:19;;;;;;;63.30;25.30;;;23.70;41.40;;;;;;224210;1267;25157;-56
2022/03/08 11:52:35;;;;;;;57.40;23.10;;;23.70;40.90;;;;;;219608;1267;26618;-59
2022/03/08 11:57:41;;;;;;;56.80;23.80;;;23.70;40.50;;;;;;220287;1267;23433;-55
2022/03/08 12:02:47;;;;;;;48.10;19.70;;;23.60;40.20;;;;;;219740;1267;25535;-56
2022/03/08 12:07:50;;;;;;;49.00;19.30;;;23.60;39.60;;;;;;219798;1267;22591;-57
2022/03/08 12:12:59;;;;;;;47.70;19.00;;;23.50;39.80;;;;;;219908;1267;22595;-57
2022/03/08 12:18:17;;;;;;;41.80;17.30;;;23.60;40.10;;;;;;219903;1267;22746;-55
2022/03/08 12:23:49;;;;;;;37.70;16.40;;;23.50;39.70;;;;;;219940;1267;25754;-56
2022/03/08 12:29:16;;;;;;;38.20;16.00;;;23.50;40.10;;;;;;219911;1267;22877;-57
2022/03/08 12:34:43;;;;;;;38.50;16.30;;;23.60;40.80;;;;;;220199;1267;24601;-56
2022/03/08 12:40:25;;;;;;;41.50;15.10;;;23.70;41.80;;;;;;220099;1267;22608;-55
2022/03/08 12:45:32;;;;;;;29.90;14.10;;;23.70;41.80;;;;;;220033;1267;22547;-57
2022/03/08 12:50:53;;;;;;;31.90;13.60;;;23.70;42.20;;;;;;219956;1267;22613;-54
2022/03/08 12:56:01;;;;;;;32.10;14.20;;;23.70;42.60;;;;;;219828;1267;23224;-56
2022/03/08 13:01:08;;;;;;;36.70;15.70;;;23.70;43.10;;;;;;219875;1267;22703;-57
2022/03/08 13:06:13;;;;;;;32.00;14.70;;;23.70;43.50;;;;;;219963;1267;22544;-55
2022/03/08 13:11:18;;;;;;;32.60;14.60;;;23.80;43.60;;;;;;220553;1267;22528;-58
2022/03/08 13:16:25;;;;;;;27.20;13.00;;;23.80;43.60;;;;;;219911;1267;25583;-56
2022/03/08 13:21:29;;;;;;;30.60;13.60;;;23.70;44.10;;;;;;219803;1268;22736;-57
2022/03/08 13:32:10;;;;;;;28.20;11.80;;;23.80;42.90;;;;;;219648;1270;22693;-55
2022/03/08 13:37:14;;;;;;;25.80;11.70;;;23.60;42.40;;;;;;220234;1267;24197;-55
2022/03/08 13:42:18;;;;;;;28.70;11.40;;;23.70;42.70;;;;;;220308;1267;24271;-56
2022/03/08 13:47:29;;;;;;;22.40;10.70;;;23.70;43.00;;;;;;219744;1267;22752;-58
2022/03/08 13:52:34;;;;;;;25.20;10.80;;;23.70;43.20;;;;;;220056;1267;24214;-57
2022/03/08 13:57:55;;;;;;;21.00;10.00;;;23.70;43.40;;;;;;220461;1267;24318;-57
2022/03/08 14:03:02;;;;;;;21.60;10.50;;;23.80;43.60;;;;;;219968;1267;25420;-59
2022/03/08 14:08:05;;;;;;;21.50;9.90;;;23.80;44.20;;;;;;219873;1267;22672;-54
2022/03/08 14:13:09;;;;;;;20.30;10.10;;;23.70;44.90;;;;;;219207;1267;25420;-58
2022/03/08 14:18:14;;;;;;;21.10;9.30;;;23.70;45.40;;;;;;219214;1267;24449;-59
2022/03/08 14:23:19;;;;;;;21.70;9.40;;;23.80;45.30;;;;;;219474;1267;22601;-58
2022/03/08 14:28:44;;;;;;;20.20;9.40;;;23.80;45.60;;;;;;227683;1267;23134;-58
2022/03/08 14:34:12;;;;;;;18.00;9.40;;;23.80;46.10;;;;;;227808;1266;22367;-59
2022/03/08 14:39:40;;;;;;;17.80;9.30;;;23.70;46.60;;;;;;227977;1270;22358;-58
2022/03/08 14:44:53;;;;;;;16.20;8.60;;;23.70;47.00;;;;;;227848;1266;22313;-60
2022/03/08 14:49:58;;;;;;;13.70;8.70;;;23.80;47.50;;;;;;227666;1272;22414;-60
2022/03/08 14:55:13;;;;;;;16.50;8.90;;;23.70;48.00;;;;;;227899;1270;22489;-57
2022/03/08 15:00:27;;;;;;;17.90;8.70;;;23.60;48.90;;;;;;227823;1266;23029;-57
2022/03/08 15:05:32;;;;;;;16.10;8.70;;;23.60;49.90;;;;;;227973;1270;22373;-58
2022/03/08 15:10:38;;;;;;;18.70;9.00;;;23.60;50.20;;;;;;227852;1270;22472;-57
2022/03/08 15:15:45;;;;;;;15.50;8.50;;;23.50;51.30;;;;;;227796;1266;22357;-57
2022/03/08 15:21:30;;;;;;;19.10;8.40;;;23.60;51.00;;;;;;227825;1269;23893;-60
2022/03/08 15:26:38;;;;;;;17.50;8.90;;;23.60;51.40;;;;;;227934;1266;22276;-57
2022/03/08 15:31:42;;;;;;;23.60;9.20;;;23.50;52.30;;;;;;227956;1270;23161;-59
2022/03/08 15:36:47;;;;;;;25.30;9.40;;;23.50;53.10;;;;;;228003;1270;23048;-58
2022/03/08 15:41:50;;;;;;;21.90;8.70;;;23.50;55.20;;;;;;227594;1272;23847;-59
2022/03/08 15:46:54;;;;;;;18.70;9.00;;;23.50;55.90;;;;;;227960;1267;22365;-56
2022/03/08 15:51:58;;;;;;;21.10;9.00;;;23.50;56.50;;;;;;227750;1267;23163;-58
2022/03/08 15:57:02;;;;;;;19.40;8.60;;;23.40;56.60;;;;;;227913;1270;23183;-56
2022/03/08 16:02:07;;;;;;;18.70;8.80;;;23.30;57.50;;;;;;228007;1270;22260;-56
2022/03/08 16:07:11;;;;;;;19.90;9.70;;;23.30;58.70;;;;;;227618;1272;22859;-58
2022/03/08 16:12:17;;;;;;;23.30;10.40;;;23.30;59.60;;;;;;227723;1272;22348;-61
2022/03/08 16:17:21;;;;;;;17.50;8.30;;;23.30;59.40;;;;;;227363;1266;22655;-57
2022/03/08 16:22:40;;;;;;;15.10;8.20;;;23.30;59.70;;;;;;219628;1267;24065;-55
2022/03/08 16:27:46;;;;;;;16.70;7.60;;;23.30;59.60;;;;;;219908;1268;25432;-56
2022/03/08 16:32:50;;;;;;;16.50;8.10;;;23.20;59.70;;;;;;219772;1268;22608;-56
2022/03/08 16:37:54;;;;;;;16.90;8.50;;;23.10;59.30;;;;;;219672;1267;22581;-60
2022/03/08 16:42:58;;;;;;;16.30;7.40;;;23.00;59.20;;;;;;219674;1267;22545;-60
2022/03/08 16:48:02;;;;;;;14.40;8.10;;;23.10;59.30;;;;;;219918;1267;350159;-59
2022/03/08 16:53:05;;;;;;;19.10;8.00;;;23.10;58.70;;;;;;220341;1267;25251;-60
2022/03/08 16:58:12;;;;;;;18.70;7.50;;;23.10;58.30;;;;;;220040;1267;24305;-58
2022/03/08 17:03:20;;;;;;;13.10;6.80;;;23.00;57.90;;;;;;219972;1267;25520;-58
2022/03/08 17:08:27;;;;;;;15.40;7.20;;;23.00;58.10;;;;;;220088;1267;22890;-58
2022/03/08 17:13:32;;;;;;;16.80;7.30;;;23.00;57.90;;;;;;220050;1268;22688;-56
2022/03/08 17:18:50;;;;;;;18.50;7.30;;;22.90;57.90;;;;;;219769;1267;24325;-61
2022/03/08 17:23:59;;;;;;;18.30;7.90;;;23.00;57.70;;;;;;219967;1268;22553;-58
2022/03/08 17:29:06;;;;;;;14.20;7.00;;;22.90;57.40;;;;;;219692;1267;25207;-59
2022/03/08 17:34:15;;;;;;;18.80;6.90;;;22.90;57.30;;;;;;219790;1267;25580;-59
2022/03/08 17:39:25;;;;;;;16.30;6.50;;;22.80;57.20;;;;;;219845;1267;22612;-60
2022/03/08 17:44:36;;;;;;;14.20;6.60;;;22.80;57.00;;;;;;219799;1267;24209;-60
2022/03/08 17:49:46;;;;;;;16.10;6.20;;;22.80;56.40;;;;;;219784;1267;22545;-55
2022/03/08 17:54:53;;;;;;;21.30;7.10;;;22.80;56.60;;;;;;220061;1268;25379;-56
2022/03/08 18:00:03;;;;;;;12.50;6.10;;;22.70;56.90;;;;;;220432;1268;22773;-57
2022/03/08 18:05:27;;;;;;;17.30;5.90;;;22.60;56.80;;;;;;220247;1267;23937;-59
2022/03/08 18:10:34;;;;;;;14.40;6.30;;;22.50;55.90;;;;;;220184;1267;25249;-57
2022/03/08 18:15:43;;;;;;;15.70;6.40;;;22.50;55.20;;;;;;220347;1267;24233;-58
2022/03/08 18:20:48;;;;;;;12.60;6.60;;;22.40;55.20;;;;;;221089;1267;22609;-60
2022/03/08 18:25:53;;;;;;;11.10;6.00;;;22.40;54.60;;;;;;220259;1267;23227;-57
2022/03/08 18:31:00;;;;;;;10.30;6.10;;;22.40;54.60;;;;;;219977;1267;22553;-57
2022/03/08 18:36:06;;;;;;;11.80;6.00;;;22.40;54.50;;;;;;220247;1267;22621;-58
2022/03/08 18:41:20;;;;;;;12.90;5.60;;;22.40;54.20;;;;;;220554;1267;22525;-59
2022/03/08 18:46:35;;;;;;;11.20;5.40;;;22.30;54.20;;;;;;220344;1267;25486;-57
2022/03/08 18:51:42;;;;;;;12.70;5.80;;;22.30;54.10;;;;;;220375;1267;22618;-58
2022/03/08 18:56:46;;;;;;;16.50;5.40;;;22.30;54.00;;;;;;219969;1267;23186;-56
2022/03/08 19:01:49;;;;;;;10.60;6.00;;;22.30;53.90;;;;;;219956;1268;22694;-56
2022/03/08 19:06:57;;;;;;;13.10;6.40;;;22.30;53.70;;;;;;219844;1267;22547;-58
2022/03/08 19:12:01;;;;;;;14.10;7.00;;;22.30;53.80;;;;;;219836;1270;22555;-59
2022/03/08 19:17:05;;;;;;;18.20;6.50;;;22.20;53.90;;;;;;219794;1267;22561;-57
2022/03/08 19:22:12;;;;;;;13.80;6.50;;;22.20;53.80;;;;;;220083;1267;25220;-59
2022/03/08 19:27:16;;;;;;;15.40;6.70;;;22.10;54.00;;;;;;219544;1267;22534;-58
2022/03/08 19:32:20;;;;;;;15.30;6.70;;;22.10;53.60;;;;;;220075;1268;25474;-56
2022/03/08 19:37:24;;;;;;;13.50;6.30;;;22.10;53.80;;;;;;219626;1267;26501;-58
2022/03/08 19:42:31;;;;;;;14.90;8.00;;;22.10;52.90;;;;;;219731;1268;22597;-56
2022/03/08 19:47:37;;;;;;;16.90;8.20;;;22.20;53.20;;;;;;219860;1267;22703;-55
2022/03/08 19:52:46;;;;;;;37.10;12.90;;;22.40;53.80;;;;;;219824;1268;22581;-54
2022/03/08 19:58:02;;;;;;;148.20;48.20;;;22.80;53.00;;;;;;219952;1267;22544;-55
2022/03/08 20:03:13;;;;;;;214.80;61.60;;;23.00;52.50;;;;;;219581;1272;23042;-53
2022/03/08 20:08:28;;;;;;;294.10;85.60;;;23.20;52.10;;;;;;219905;1267;22746;-55
2022/03/08 20:13:33;;;;;;;240.60;74.60;;;23.40;51.70;;;;;;219811;1267;22621;-55
2022/03/08 20:18:36;;;;;;;276.50;86.80;;;23.60;51.30;;;;;;220314;1268;22771;-55
2022/03/08 20:23:42;;;;;;;215.00;73.30;;;23.60;50.80;;;;;;219641;1268;25411;-55
2022/03/08 20:29:11;;;;;;;242.70;72.70;;;23.70;50.60;;;;;;220158;1268;24319;-55
2022/03/08 20:34:20;;;;;;;222.10;70.30;;;23.90;50.50;;;;;;220212;1270;22593;-54
2022/03/08 20:39:26;;;;;;;211.20;72.50;;;24.00;50.60;;;;;;220337;1270;22528;-54
2022/03/08 20:44:36;;;;;;;197.50;72.60;;;24.10;50.50;;;;;;220051;1268;22554;-58
2022/03/08 20:49:50;;;;;;;197.50;68.10;;;24.10;50.00;;;;;;219708;1269;25214;-57
2022/03/08 20:54:59;;;;;;;194.60;65.80;;;24.10;50.10;;;;;;220077;1268;24305;-57
2022/03/08 21:00:07;;;;;;;187.90;66.30;;;24.20;50.10;;;;;;220059;1269;22759;-58
2022/03/08 21:05:18;;;;;;;;;;;24.30;50.10;;;;;;220256;1269;22541;-57
2022/03/08 21:10:24;;;;;;;162.50;55.90;;;24.30;50.10;;;;;;220289;1268;23143;-55
2022/03/08 21:15:33;;;;;;;165.00;60.20;;;24.30;49.70;;;;;;219782;1269;22561;-56
2022/03/08 21:20:37;;;;;;;160.50;63.20;;;24.40;50.10;;;;;;220100;1268;22563;-53
2022/03/08 21:25:43;;;;;;;157.80;59.20;;;24.40;49.60;;;;;;219977;1268;24384;-57
2022/03/08 21:30:47;;;;;;;145.40;53.90;;;24.50;49.50;;;;;;219709;1269;25281;-56
2022/03/08 21:35:51;;;;;;;142.00;55.40;;;24.50;49.60;;;;;;220096;1268;22523;-53
2022/03/08 21:40:56;;;;;;;137.80;54.10;;;24.30;49.50;;;;;;220453;1268;22638;-55
2022/03/08 21:46:03;;;;;;;138.60;55.90;;;24.10;50.10;;;;;;219850;1268;22525;-58
2022/03/08 21:51:11;;;;;;;135.90;53.90;;;23.90;50.30;;;;;;220125;1268;22586;-57
2022/03/08 21:56:15;;;;;;;124.10;50.60;;;23.80;50.20;;;;;;219863;1268;25554;-55
2022/03/08 22:01:25;;;;;;;117.80;51.30;;;23.70;50.70;;;;;;219948;1268;22494;-57
2022/03/08 22:06:31;;;;;;;120.90;50.90;;;23.60;50.50;;;;;;219855;1268;22529;-56
2022/03/08 22:11:36;;;;;;;117.80;50.50;;;23.50;50.50;;;;;;219862;1268;25272;-54
2022/03/08 22:16:40;;;;;;;125.20;50.90;;;23.30;50.90;;;;;;220027;1267;25679;-57
2022/03/08 22:21:49;;;;;;;113.30;47.60;;;23.20;51.10;;;;;;219837;1268;22558;-53
2022/03/08 22:26:56;;;;;;;109.80;48.20;;;23.10;51.10;;;;;;219945;1268;22547;-56
2022/03/08 22:32:00;;;;;;;106.60;45.20;;;23.10;51.20;;;;;;219899;1268;24258;-58
2022/03/08 22:37:04;;;;;;;104.50;46.10;;;23.00;51.30;;;;;;219890;1268;22629;-54
2022/03/08 22:42:11;;;;;;;114.10;46.10;;;22.90;51.20;;;;;;219860;1268;22544;-57
2022/03/08 22:47:15;;;;;;;104.00;41.90;;;22.80;51.70;;;;;;219923;1268;25567;-55
2022/03/08 22:52:19;;;;;;;101.10;44.40;;;22.80;51.60;;;;;;220020;1268;24264;-56
2022/03/08 22:57:25;;;;;;;97.00;42.80;;;22.70;51.80;;;;;;220043;1268;22576;-56
2022/03/08 23:02:29;;;;;;;90.00;39.90;;;22.70;51.60;;;;;;219884;1267;25366;-56
2022/03/08 23:07:34;;;;;;;96.50;42.30;;;22.60;51.60;;;;;;219838;1267;24380;-55
2022/03/08 23:12:40;;;;;;;89.60;40.20;;;22.70;51.50;;;;;;219487;1268;25427;-55
2022/03/08 23:17:44;;;;;;;93.10;39.30;;;22.70;51.00;;;;;;220393;1267;22939;-55
2022/03/08 23:22:48;;;;;;;88.50;38.90;;;22.60;51.70;;;;;;219779;1268;22565;-56
2022/03/08 23:27:52;;;;;;;86.80;37.40;;;22.60;52.30;;;;;;219767;1267;24617;-57
2022/03/08 23:32:55;;;;;;;80.80;35.50;;;22.50;52.30;;;;;;219882;1267;25352;-57
2022/03/08 23:37:59;;;;;;;79.50;36.50;;;22.40;52.40;;;;;;219808;1268;22793;-58
2022/03/08 23:43:03;;;;;;;81.20;33.70;;;22.50;51.90;;;;;;220085;1268;22541;-55
2022/03/08 23:48:07;;;;;;;72.80;34.00;;;22.80;51.80;;;;;;220024;1267;22694;-55
2022/03/08 23:53:11;;;;;;;71.20;32.70;;;23.20;50.90;;;;;;220195;1268;25511;-56
2022/03/08 23:58:14;;;;;;;75.70;31.60;;;23.50;50.20;;;;;;220071;1267;25309;-56
